createdAt,value
2023-03-07T00:00:47.444Z,71.70
2023-03-07T00:01:47.405Z,71.70
2023-03-07T00:02:47.471Z,71.80
2023-03-07T00:03:47.519Z,72.01
2023-03-07T00:04:47.376Z,72.42
2023-03-07T00:05:47.360Z,72.11
2023-03-07T00:06:47.341Z,72.22
2023-03-07T00:07:47.342Z,72.22
2023-03-07T00:08:52.385Z,72.01
2023-03-07T00:09:47.314Z,72.22
2023-03-07T00:10:47.297Z,71.70
2023-03-07T00:11:47.318Z,71.70
2023-03-07T00:12:47.296Z,72.11
2023-03-07T00:13:47.264Z,72.32
2023-03-07T00:14:47.288Z,72.22
2023-03-07T00:15:47.303Z,72.01
2023-03-07T00:16:47.259Z,72.11
2023-03-07T00:17:47.239Z,72.11
2023-03-07T00:18:47.203Z,71.80
2023-03-07T00:19:52.218Z,72.74
2023-03-07T00:20:47.194Z,72.74
2023-03-07T00:21:47.227Z,72.01
2023-03-07T00:22:47.170Z,72.84
2023-03-07T00:23:47.162Z,72.63
2023-03-07T00:24:47.145Z,72.11
2023-03-07T00:25:47.133Z,72.22
2023-03-07T00:26:47.121Z,72.01
2023-03-07T00:27:47.162Z,73.25
2023-03-07T00:28:47.096Z,72.53
2023-03-07T00:29:47.090Z,72.74
2023-03-07T00:30:52.096Z,72.84
2023-03-07T00:31:47.167Z,72.84
2023-03-07T00:32:47.105Z,72.74
2023-03-07T00:33:47.077Z,72.22
2023-03-07T00:34:47.052Z,72.32
2023-03-07T00:35:47.068Z,72.22
2023-03-07T00:36:47.072Z,72.32
2023-03-07T00:37:47.025Z,71.80
2023-03-07T00:38:47.004Z,71.80
2023-03-07T00:39:48.654Z,71.70
2023-03-07T00:40:47.030Z,72.22
2023-03-07T00:41:52.004Z,72.42
2023-03-07T00:42:46.950Z,71.70
2023-03-07T00:43:46.951Z,71.59
2023-03-07T00:44:46.935Z,71.70
2023-03-07T00:45:46.960Z,71.91
2023-03-07T00:46:46.905Z,71.49
2023-03-07T00:47:46.903Z,71.91
2023-03-07T00:48:46.886Z,72.32
2023-03-07T00:49:46.864Z,71.80
2023-03-07T00:50:46.853Z,71.59
2023-03-07T00:51:46.898Z,72.22
2023-03-07T00:52:51.867Z,72.32
2023-03-07T00:53:46.821Z,72.11
2023-03-07T00:54:46.811Z,72.32
2023-03-07T00:55:46.799Z,72.32
2023-03-07T00:56:46.786Z,72.22
2023-03-07T00:57:46.798Z,72.63
2023-03-07T00:58:46.772Z,72.74
2023-03-07T00:59:46.775Z,73.25
2023-03-07T01:00:46.767Z,72.84
2023-03-07T01:01:46.740Z,73.36
2023-03-07T01:02:46.730Z,73.05
2023-03-07T01:03:51.773Z,73.25
2023-03-07T01:04:46.705Z,72.01
2023-03-07T01:05:46.692Z,72.01
2023-03-07T01:06:46.677Z,72.11
2023-03-07T01:07:46.696Z,72.74
2023-03-07T01:08:46.662Z,72.01
2023-03-07T01:09:46.661Z,72.63
2023-03-07T01:10:46.635Z,73.39
2023-03-07T01:11:46.625Z,72.94
2023-03-07T01:12:46.611Z,72.94
2023-03-07T01:13:46.614Z,73.57
2023-03-07T01:14:51.695Z,73.36
2023-03-07T01:15:46.633Z,73.15
2023-03-07T01:16:46.588Z,72.74
2023-03-07T01:17:46.551Z,73.05
2023-03-07T01:18:46.566Z,73.15
2023-03-07T01:19:46.535Z,72.94
2023-03-07T01:20:46.523Z,73.25
2023-03-07T01:21:46.527Z,73.36
2023-03-07T01:22:46.500Z,73.36
2023-03-07T01:23:46.531Z,72.01
2023-03-07T01:24:46.507Z,72.74
2023-03-07T01:25:51.486Z,72.01
2023-03-07T01:26:46.452Z,72.74
2023-03-07T01:27:46.445Z,72.74
2023-03-07T01:28:46.523Z,72.84
2023-03-07T01:29:46.421Z,72.94
2023-03-07T01:30:46.433Z,73.15
2023-03-07T01:31:46.456Z,73.15
2023-03-07T01:32:46.487Z,72.94
2023-03-07T01:33:46.386Z,72.63
2023-03-07T01:34:46.398Z,73.15
2023-03-07T01:35:46.364Z,73.05
2023-03-07T01:36:51.415Z,72.84
2023-03-07T01:37:46.329Z,73.11
2023-03-07T01:38:46.325Z,72.74
2023-03-07T01:39:46.317Z,73.05
2023-03-07T01:40:46.363Z,73.25
2023-03-07T01:41:46.306Z,73.46
2023-03-07T01:42:46.278Z,73.36
2023-03-07T01:43:46.272Z,73.98
2023-03-07T01:44:46.266Z,73.98
2023-03-07T01:45:46.254Z,74.08
2023-03-07T01:46:46.292Z,74.08
2023-03-07T01:47:51.254Z,73.98
2023-03-07T01:48:46.210Z,73.57
2023-03-07T01:49:46.357Z,74.40
2023-03-07T01:50:46.194Z,74.08
2023-03-07T01:51:46.171Z,73.98
2023-03-07T01:52:46.162Z,73.98
2023-03-07T01:53:46.203Z,74.60
2023-03-07T01:54:46.149Z,74.60
2023-03-07T01:55:46.128Z,74.50
2023-03-07T01:56:46.122Z,75.43
2023-03-07T01:57:46.104Z,75.43
2023-03-07T01:58:51.115Z,75.22
2023-03-07T01:59:46.155Z,75.53
2023-03-07T02:00:46.073Z,75.22
2023-03-07T02:01:46.065Z,75.12
2023-03-07T02:02:46.074Z,75.22
2023-03-07T02:03:46.055Z,75.43
2023-03-07T02:04:46.040Z,75.32
2023-03-07T02:05:46.112Z,75.84
2023-03-07T02:06:46.005Z,75.74
2023-03-07T02:07:46.040Z,75.63
2023-03-07T02:08:45.999Z,76.05
2023-03-07T02:09:50.998Z,76.15
2023-03-07T02:10:45.955Z,76.15
2023-03-07T02:11:45.993Z,76.46
2023-03-07T02:12:45.947Z,76.26
2023-03-07T02:13:45.926Z,76.98
2023-03-07T02:14:45.961Z,76.67
2023-03-07T02:15:45.944Z,76.78
2023-03-07T02:16:45.890Z,77.29
2023-03-07T02:17:45.927Z,76.88
2023-03-07T02:18:45.896Z,77.29
2023-03-07T02:19:45.872Z,77.50
2023-03-07T02:20:50.888Z,77.40
2023-03-07T02:21:45.835Z,77.33
2023-03-07T02:22:45.828Z,77.71
2023-03-07T02:23:45.833Z,78.12
2023-03-07T02:24:45.812Z,78.64
2023-03-07T02:25:45.792Z,78.12
2023-03-07T02:26:45.781Z,77.85
2023-03-07T02:27:45.790Z,78.58
2023-03-07T02:28:45.761Z,78.12
2023-03-07T02:29:45.836Z,78.23
2023-03-07T02:30:45.753Z,78.27
2023-03-07T02:31:50.759Z,78.44
2023-03-07T02:32:45.719Z,78.33
2023-03-07T02:33:45.701Z,78.33
2023-03-07T02:34:45.722Z,78.54
2023-03-07T02:35:45.704Z,78.96
2023-03-07T02:36:45.667Z,78.78
2023-03-07T02:37:45.657Z,79.61
2023-03-07T02:38:45.649Z,78.99
2023-03-07T02:39:45.652Z,79.51
2023-03-07T02:40:45.631Z,79.30
2023-03-07T02:41:45.643Z,79.51
2023-03-07T02:42:50.629Z,79.82
2023-03-07T02:43:45.596Z,79.92
2023-03-07T02:44:45.591Z,79.51
2023-03-07T02:45:45.572Z,79.82
2023-03-07T02:46:45.556Z,79.82
2023-03-07T02:47:45.584Z,79.82
2023-03-07T02:48:45.534Z,80.02
2023-03-07T02:49:45.551Z,80.58
2023-03-07T02:50:45.538Z,80.16
2023-03-07T02:51:45.513Z,80.27
2023-03-07T02:52:45.519Z,80.13
2023-03-07T02:53:50.565Z,81.20
2023-03-07T02:54:45.467Z,81.27
2023-03-07T02:55:45.471Z,80.85
2023-03-07T02:56:45.467Z,81.30
2023-03-07T02:57:45.440Z,81.10
2023-03-07T02:58:45.425Z,81.48
2023-03-07T02:59:45.446Z,81.16
2023-03-07T03:00:45.411Z,81.51
2023-03-07T03:01:46.175Z,80.47
2023-03-07T03:02:45.380Z,81.72
2023-03-07T03:03:45.375Z,81.82
2023-03-07T03:04:50.475Z,81.82
2023-03-07T03:05:45.361Z,81.93
2023-03-07T03:06:45.357Z,81.93
2023-03-07T03:07:45.332Z,81.72
2023-03-07T03:08:45.326Z,81.93
2023-03-07T03:09:45.308Z,81.82
2023-03-07T03:10:45.363Z,81.72
2023-03-07T03:11:45.283Z,82.24
2023-03-07T03:12:45.276Z,82.59
2023-03-07T03:13:45.275Z,82.45
2023-03-07T03:14:45.284Z,82.34
2023-03-07T03:15:50.319Z,82.55
2023-03-07T03:16:45.296Z,82.65
2023-03-07T03:17:45.217Z,82.97
2023-03-07T03:18:45.205Z,82.97
2023-03-07T03:19:45.196Z,83.22
2023-03-07T03:20:45.200Z,83.11
2023-03-07T03:21:45.176Z,83.22
2023-03-07T03:22:45.240Z,83.63
2023-03-07T03:23:45.162Z,83.63
2023-03-07T03:24:45.138Z,83.63
2023-03-07T03:25:45.136Z,83.63
2023-03-07T03:26:50.138Z,83.53
2023-03-07T03:27:45.107Z,83.53
2023-03-07T03:28:45.117Z,83.32
2023-03-07T03:29:45.087Z,84.25
2023-03-07T03:30:45.082Z,83.22
2023-03-07T03:31:45.063Z,83.32
2023-03-07T03:32:45.047Z,84.36
2023-03-07T03:33:45.046Z,84.15
2023-03-07T03:34:45.065Z,84.15
2023-03-07T03:35:45.154Z,83.73
2023-03-07T03:36:45.002Z,84.29
2023-03-07T03:37:50.153Z,84.81
2023-03-07T03:38:44.992Z,85.02
2023-03-07T03:39:44.969Z,84.70
2023-03-07T03:40:44.997Z,84.91
2023-03-07T03:41:44.948Z,84.91
2023-03-07T03:42:44.951Z,84.50
2023-03-07T03:43:44.930Z,84.91
2023-03-07T03:44:44.913Z,85.43
2023-03-07T03:45:44.912Z,84.91
2023-03-07T03:46:45.064Z,85.02
2023-03-07T03:47:44.899Z,85.02
2023-03-07T03:48:49.892Z,85.33
2023-03-07T03:49:44.874Z,85.02
2023-03-07T03:50:44.852Z,85.43
2023-03-07T03:51:44.835Z,85.22
2023-03-07T03:52:44.886Z,85.22
2023-03-07T03:53:44.846Z,85.95
2023-03-07T03:54:44.818Z,85.43
2023-03-07T03:55:44.815Z,85.43
2023-03-07T03:56:44.776Z,85.64
2023-03-07T03:57:44.770Z,85.33
2023-03-07T03:58:44.813Z,85.43
2023-03-07T03:59:49.769Z,85.88
2023-03-07T04:00:44.740Z,86.30
2023-03-07T04:01:44.842Z,86.51
2023-03-07T04:02:44.796Z,86.61
2023-03-07T04:03:44.698Z,86.41
2023-03-07T04:04:44.733Z,86.61
2023-03-07T04:05:44.707Z,86.72
2023-03-07T04:06:44.668Z,86.41
2023-03-07T04:07:44.654Z,86.30
2023-03-07T04:08:44.643Z,86.19
2023-03-07T04:09:44.654Z,86.09
2023-03-07T04:10:49.708Z,86.51
2023-03-07T04:11:44.609Z,86.30
2023-03-07T04:12:44.595Z,86.61
2023-03-07T04:13:44.587Z,86.36
2023-03-07T04:14:44.569Z,86.30
2023-03-07T04:15:44.562Z,86.30
2023-03-07T04:16:44.695Z,86.30
2023-03-07T04:17:44.540Z,86.30
2023-03-07T04:18:44.530Z,86.36
2023-03-07T04:19:44.523Z,85.95
2023-03-07T04:20:44.523Z,86.05
2023-03-07T04:21:49.531Z,85.53
2023-03-07T04:22:44.534Z,85.53
2023-03-07T04:23:44.474Z,85.43
2023-03-07T04:24:44.458Z,85.95
2023-03-07T04:25:44.527Z,85.43
2023-03-07T04:26:44.450Z,85.74
2023-03-07T04:27:44.426Z,85.22
2023-03-07T04:28:44.451Z,85.22
2023-03-07T04:29:44.404Z,85.05
2023-03-07T04:30:44.391Z,84.91
2023-03-07T04:31:44.484Z,85.85
2023-03-07T04:32:49.393Z,85.02
2023-03-07T04:33:44.361Z,85.02
2023-03-07T04:34:44.382Z,85.02
2023-03-07T04:35:44.351Z,85.02
2023-03-07T04:36:44.331Z,84.91
2023-03-07T04:37:44.314Z,84.91
2023-03-07T04:38:44.304Z,84.67
2023-03-07T04:39:44.292Z,85.53
2023-03-07T04:40:44.312Z,85.29
2023-03-07T04:41:44.349Z,84.81
2023-03-07T04:42:44.267Z,85.22
2023-03-07T04:43:49.272Z,84.98
2023-03-07T04:44:44.232Z,85.12
2023-03-07T04:45:44.269Z,85.12
2023-03-07T04:46:44.324Z,85.02
2023-03-07T04:47:44.202Z,84.88
2023-03-07T04:48:44.192Z,84.77
2023-03-07T04:49:44.183Z,84.81
2023-03-07T04:50:44.170Z,85.08
2023-03-07T04:51:44.315Z,85.08
2023-03-07T04:52:44.182Z,85.12
2023-03-07T04:53:44.139Z,85.22
2023-03-07T04:54:49.147Z,85.12
2023-03-07T04:55:44.113Z,84.60
2023-03-07T04:56:44.102Z,84.70
2023-03-07T04:57:45.240Z,84.81
2023-03-07T04:58:44.133Z,84.70
2023-03-07T04:59:44.071Z,84.81
2023-03-07T05:00:44.060Z,85.29
2023-03-07T05:01:44.097Z,84.60
2023-03-07T05:02:44.040Z,85.53
2023-03-07T05:03:44.025Z,84.56
2023-03-07T05:04:44.052Z,85.81
2023-03-07T05:05:49.027Z,84.98
2023-03-07T05:06:44.004Z,84.98
2023-03-07T05:07:43.989Z,84.98
2023-03-07T05:08:43.979Z,84.05
2023-03-07T05:09:43.988Z,84.91
2023-03-07T05:10:43.941Z,84.36
2023-03-07T05:11:43.935Z,84.25
2023-03-07T05:12:43.934Z,84.25
2023-03-07T05:13:43.945Z,85.12
2023-03-07T05:14:43.900Z,85.19
2023-03-07T05:15:43.983Z,84.81
2023-03-07T05:16:48.896Z,84.81
2023-03-07T05:17:43.888Z,85.19
2023-03-07T05:18:43.853Z,85.08
2023-03-07T05:19:43.841Z,85.12
2023-03-07T05:20:43.829Z,84.88
2023-03-07T05:21:43.918Z,84.70
2023-03-07T05:22:43.816Z,84.91
2023-03-07T05:23:43.803Z,84.70
2023-03-07T05:24:43.796Z,85.19
2023-03-07T05:25:43.785Z,84.15
2023-03-07T05:26:43.764Z,84.36
2023-03-07T05:27:48.832Z,83.87
2023-03-07T05:28:43.741Z,83.87
2023-03-07T05:29:43.760Z,83.87
2023-03-07T05:30:43.764Z,83.98
2023-03-07T05:31:43.705Z,84.25
2023-03-07T05:32:43.706Z,84.19
2023-03-07T05:33:43.703Z,84.08
2023-03-07T05:34:43.671Z,83.98
2023-03-07T05:35:43.731Z,83.98
2023-03-07T05:36:43.648Z,84.19
2023-03-07T05:37:43.641Z,83.84
2023-03-07T05:38:48.659Z,83.94
2023-03-07T05:39:43.648Z,83.94
2023-03-07T05:40:43.608Z,83.94
2023-03-07T05:41:43.595Z,83.94
2023-03-07T05:42:43.581Z,83.94
2023-03-07T05:43:43.583Z,83.98
2023-03-07T05:44:43.561Z,83.94
2023-03-07T05:45:43.586Z,84.05
2023-03-07T05:46:43.544Z,84.15
2023-03-07T05:47:43.530Z,83.73
2023-03-07T05:48:43.539Z,84.05
2023-03-07T05:49:48.527Z,83.87
2023-03-07T05:50:43.493Z,83.73
2023-03-07T05:51:43.530Z,83.73
2023-03-07T05:52:43.470Z,83.94
2023-03-07T05:53:43.472Z,83.73
2023-03-07T05:54:43.457Z,84.15
2023-03-07T05:55:43.448Z,83.94
2023-03-07T05:56:43.437Z,83.84
2023-03-07T05:57:43.469Z,83.63
2023-03-07T05:58:43.421Z,84.15
2023-03-07T05:59:43.402Z,83.73
2023-03-07T06:00:48.491Z,83.98
2023-03-07T06:01:43.392Z,84.19
2023-03-07T06:02:43.431Z,84.36
2023-03-07T06:03:43.442Z,84.19
2023-03-07T06:04:43.335Z,83.94
2023-03-07T06:05:43.339Z,83.87
2023-03-07T06:06:43.334Z,83.98
2023-03-07T06:07:43.308Z,84.29
2023-03-07T06:08:43.305Z,84.08
2023-03-07T06:09:43.295Z,84.19
2023-03-07T06:10:43.293Z,84.05
2023-03-07T06:11:48.284Z,83.98
2023-03-07T06:12:43.247Z,84.19
2023-03-07T06:13:43.261Z,83.98
2023-03-07T06:14:43.229Z,84.25
2023-03-07T06:15:43.270Z,83.84
2023-03-07T06:16:43.228Z,83.98
2023-03-07T06:17:43.209Z,83.98
2023-03-07T06:18:43.190Z,83.77
2023-03-07T06:19:43.207Z,83.98
2023-03-07T06:20:43.171Z,83.25
2023-03-07T06:21:43.215Z,83.42
2023-03-07T06:22:48.167Z,83.32
2023-03-07T06:23:43.141Z,83.53
2023-03-07T06:24:43.117Z,83.73
2023-03-07T06:25:43.136Z,83.73
2023-03-07T06:26:43.113Z,83.42
2023-03-07T06:27:43.138Z,83.11
2023-03-07T06:28:43.126Z,83.11
2023-03-07T06:29:43.060Z,83.11
2023-03-07T06:30:43.052Z,82.80
2023-03-07T06:31:43.104Z,82.70
2023-03-07T06:32:43.147Z,82.49
2023-03-07T06:33:48.067Z,81.56
2023-03-07T06:34:43.058Z,81.66
2023-03-07T06:35:43.020Z,81.56
2023-03-07T06:36:42.986Z,81.87
2023-03-07T06:37:42.976Z,81.97
2023-03-07T06:38:43.013Z,81.87
2023-03-07T06:39:42.966Z,82.18
2023-03-07T06:40:42.975Z,81.72
2023-03-07T06:41:42.929Z,81.20
2023-03-07T06:42:42.918Z,81.51
2023-03-07T06:43:42.916Z,80.27
2023-03-07T06:44:47.933Z,81.10
2023-03-07T06:45:42.915Z,81.30
2023-03-07T06:46:42.923Z,80.89
2023-03-07T06:47:42.858Z,80.99
2023-03-07T06:48:42.920Z,81.30
2023-03-07T06:49:42.862Z,80.54
2023-03-07T06:50:42.835Z,81.06
2023-03-07T06:51:42.822Z,80.75
2023-03-07T06:52:42.819Z,80.47
2023-03-07T06:53:42.796Z,79.85
2023-03-07T06:54:42.795Z,79.71
2023-03-07T06:55:47.803Z,79.51
2023-03-07T06:56:45.302Z,79.96
2023-03-07T06:57:42.751Z,79.75
2023-03-07T06:58:42.740Z,79.55
2023-03-07T06:59:42.752Z,79.41
2023-03-07T07:00:42.719Z,79.41
2023-03-07T07:01:42.836Z,79.20
2023-03-07T07:02:42.851Z,79.41
2023-03-07T07:03:42.683Z,79.10
2023-03-07T07:04:42.699Z,78.89
2023-03-07T07:05:42.689Z,78.89
2023-03-07T07:06:47.675Z,78.99
2023-03-07T07:07:42.652Z,78.99
2023-03-07T07:08:42.626Z,78.68
2023-03-07T07:09:42.624Z,78.47
2023-03-07T07:10:42.602Z,78.33
2023-03-07T07:11:42.628Z,78.27
2023-03-07T07:12:42.586Z,78.06
2023-03-07T07:13:42.603Z,78.44
2023-03-07T07:14:42.558Z,78.16
2023-03-07T07:15:42.562Z,78.23
2023-03-07T07:16:42.594Z,78.33
2023-03-07T07:17:47.672Z,77.92
2023-03-07T07:18:42.566Z,78.02
2023-03-07T07:19:42.506Z,77.81
2023-03-07T07:20:42.585Z,77.81
2023-03-07T07:21:42.482Z,77.40
2023-03-07T07:22:42.470Z,77.09
2023-03-07T07:23:42.520Z,77.09
2023-03-07T07:24:42.454Z,76.98
2023-03-07T07:25:42.442Z,77.19
2023-03-07T07:26:42.429Z,76.98
2023-03-07T07:27:42.426Z,76.78
2023-03-07T07:28:47.440Z,75.95
2023-03-07T07:29:42.511Z,75.84
2023-03-07T07:30:42.392Z,75.63
2023-03-07T07:31:42.482Z,76.02
2023-03-07T07:32:42.603Z,75.84
2023-03-07T07:33:42.346Z,75.29
2023-03-07T07:34:42.337Z,75.60
2023-03-07T07:35:42.380Z,75.60
2023-03-07T07:36:42.336Z,75.81
2023-03-07T07:37:42.316Z,75.09
2023-03-07T07:38:42.320Z,75.29
2023-03-07T07:39:47.304Z,75.46
2023-03-07T07:40:42.286Z,74.43
2023-03-07T07:41:42.301Z,74.05
2023-03-07T07:42:42.251Z,73.91
2023-03-07T07:43:42.247Z,73.91
2023-03-07T07:44:42.232Z,74.32
2023-03-07T07:45:42.266Z,73.71
2023-03-07T07:46:42.206Z,73.29
2023-03-07T07:47:42.211Z,73.60
2023-03-07T07:48:42.184Z,73.91
2023-03-07T07:49:42.176Z,73.19
2023-03-07T07:50:47.206Z,73.88
2023-03-07T07:51:42.154Z,73.19
2023-03-07T07:52:42.159Z,72.94
2023-03-07T07:53:42.195Z,73.19
2023-03-07T07:54:42.128Z,72.85
2023-03-07T07:55:42.116Z,72.64
2023-03-07T07:56:42.103Z,72.02
2023-03-07T07:57:42.090Z,72.12
2023-03-07T07:58:42.083Z,72.22
2023-03-07T07:59:42.101Z,71.60
2023-03-07T08:00:42.074Z,71.81
2023-03-07T08:01:47.067Z,72.22
2023-03-07T08:02:42.098Z,71.91
2023-03-07T08:03:42.083Z,71.81
2023-03-07T08:04:42.013Z,71.81
2023-03-07T08:05:42.085Z,72.33
2023-03-07T08:06:42.026Z,71.91
2023-03-07T08:07:41.971Z,71.29
2023-03-07T08:08:42.024Z,71.81
2023-03-07T08:09:41.958Z,71.60
2023-03-07T08:10:41.955Z,71.39
2023-03-07T08:11:41.982Z,71.08
2023-03-07T08:12:46.942Z,71.70
2023-03-07T08:13:41.912Z,71.60
2023-03-07T08:14:41.895Z,71.47
2023-03-07T08:15:41.914Z,71.15
2023-03-07T08:16:41.878Z,71.26
2023-03-07T08:17:41.902Z,70.43
2023-03-07T08:18:41.880Z,70.53
2023-03-07T08:19:41.840Z,71.15
2023-03-07T08:20:41.869Z,70.95
2023-03-07T08:21:41.863Z,70.84
2023-03-07T08:22:41.808Z,70.53
2023-03-07T08:23:46.864Z,70.61
2023-03-07T08:24:41.800Z,70.19
2023-03-07T08:25:41.847Z,69.78
2023-03-07T08:26:42.642Z,69.47
2023-03-07T08:27:41.758Z,70.09
2023-03-07T08:28:41.753Z,69.47
2023-03-07T08:29:41.738Z,69.26
2023-03-07T08:30:41.803Z,69.78
2023-03-07T08:31:41.720Z,69.98
2023-03-07T08:32:41.837Z,69.92
2023-03-07T08:33:41.720Z,69.88
2023-03-07T08:34:46.717Z,69.67
2023-03-07T08:35:41.703Z,69.37
2023-03-07T08:36:41.666Z,69.37
2023-03-07T08:37:41.642Z,69.37
2023-03-07T08:38:41.663Z,68.85
2023-03-07T08:39:41.737Z,69.26
2023-03-07T08:40:41.615Z,69.37
2023-03-07T08:41:41.612Z,69.33
2023-03-07T08:42:41.628Z,69.33
2023-03-07T08:43:41.576Z,68.54
2023-03-07T08:44:41.619Z,68.71
2023-03-07T08:45:46.574Z,69.12
2023-03-07T08:46:41.651Z,68.71
2023-03-07T08:47:41.560Z,69.02
2023-03-07T08:48:41.527Z,68.27
2023-03-07T08:49:41.511Z,67.75
2023-03-07T08:50:41.536Z,67.75
2023-03-07T08:51:41.513Z,67.75
2023-03-07T08:52:41.488Z,67.65
2023-03-07T08:53:41.458Z,68.06
2023-03-07T08:54:41.448Z,67.85
2023-03-07T08:55:41.473Z,67.44
2023-03-07T08:56:46.489Z,67.54
2023-03-07T08:57:41.417Z,67.54
2023-03-07T08:58:41.404Z,67.61
2023-03-07T08:59:41.389Z,66.58
2023-03-07T09:00:41.380Z,66.61
2023-03-07T09:01:41.450Z,66.48
2023-03-07T09:02:41.408Z,66.41
2023-03-07T09:03:41.346Z,66.38
2023-03-07T09:04:41.388Z,66.58
2023-03-07T09:05:41.329Z,65.97
2023-03-07T09:06:41.311Z,65.83
2023-03-07T09:07:46.332Z,65.52
2023-03-07T09:08:41.325Z,65.86
2023-03-07T09:09:41.279Z,65.62
2023-03-07T09:10:41.273Z,65.66
2023-03-07T09:11:41.280Z,65.86
2023-03-07T09:12:41.266Z,65.52
2023-03-07T09:13:51.573Z,66.14
2023-03-07T09:14:41.252Z,65.62
2023-03-07T09:15:41.220Z,65.62
2023-03-07T09:16:41.320Z,64.90
2023-03-07T09:17:41.199Z,65.00
2023-03-07T09:18:46.206Z,64.90
2023-03-07T09:19:41.169Z,64.70
2023-03-07T09:20:41.203Z,64.87
2023-03-07T09:21:41.146Z,64.28
2023-03-07T09:22:41.147Z,63.95
2023-03-07T09:23:41.125Z,64.15
2023-03-07T09:24:41.152Z,63.84
2023-03-07T09:25:41.105Z,63.53
2023-03-07T09:26:41.144Z,63.53
2023-03-07T09:27:41.129Z,63.01
2023-03-07T09:28:41.077Z,63.19
2023-03-07T09:29:46.099Z,62.99
2023-03-07T09:30:41.055Z,62.37
2023-03-07T09:31:41.115Z,62.13
2023-03-07T09:32:41.144Z,62.10
2023-03-07T09:33:41.053Z,60.81
2023-03-07T09:34:41.007Z,59.91
2023-03-07T09:35:41.005Z,58.34
2023-03-07T09:36:40.987Z,57.36
2023-03-07T09:37:40.979Z,56.92
2023-03-07T09:38:40.964Z,55.79
2023-03-07T09:39:40.986Z,55.77
2023-03-07T09:40:45.965Z,54.51
2023-03-07T09:41:40.929Z,53.31
2023-03-07T09:42:40.925Z,53.82
2023-03-07T09:43:40.958Z,53.08
2023-03-07T09:44:40.898Z,52.49
2023-03-07T09:45:40.936Z,52.97
2023-03-07T09:46:40.876Z,52.36
2023-03-07T09:47:40.877Z,52.87
2023-03-07T09:48:40.867Z,52.03
2023-03-07T09:49:40.853Z,51.21
2023-03-07T09:50:40.837Z,51.51
2023-03-07T09:51:45.905Z,51.13
2023-03-07T09:52:40.824Z,51.87
2023-03-07T09:53:40.797Z,52.84
2023-03-07T09:54:40.787Z,53.87
2023-03-07T09:55:40.776Z,53.46
2023-03-07T09:56:40.804Z,53.69
2023-03-07T09:57:40.776Z,53.38
2023-03-07T09:58:40.752Z,54.92
2023-03-07T09:59:40.783Z,53.81
2023-03-07T10:00:40.718Z,54.33
2023-03-07T10:01:40.705Z,53.89
2023-03-07T10:02:45.730Z,53.66
2023-03-07T10:03:40.756Z,53.03
2023-03-07T10:04:40.832Z,51.98
2023-03-07T10:05:40.667Z,51.13
2023-03-07T10:06:40.651Z,50.85
2023-03-07T10:07:40.654Z,51.54
2023-03-07T10:08:40.641Z,50.52
2023-03-07T10:09:40.654Z,50.95
2023-03-07T10:10:40.609Z,50.95
2023-03-07T10:11:40.683Z,50.87
2023-03-07T10:12:40.596Z,50.95
2023-03-07T10:13:45.600Z,50.13
2023-03-07T10:14:40.566Z,50.77
2023-03-07T10:15:40.633Z,49.85
2023-03-07T10:16:40.581Z,50.07
2023-03-07T10:17:40.534Z,49.89
2023-03-07T10:18:40.515Z,49.81
2023-03-07T10:19:40.503Z,50.74
2023-03-07T10:20:40.501Z,49.91
2023-03-07T10:21:40.531Z,50.63
2023-03-07T10:22:40.480Z,50.43
2023-03-07T10:23:40.460Z,51.25
2023-03-07T10:24:45.494Z,50.53
2023-03-07T10:25:40.438Z,50.40
2023-03-07T10:26:40.459Z,50.40
2023-03-07T10:27:40.572Z,50.53
2023-03-07T10:28:42.373Z,50.12
2023-03-07T10:29:40.398Z,49.79
2023-03-07T10:30:40.383Z,49.77
2023-03-07T10:31:40.460Z,49.56
2023-03-07T10:32:40.414Z,49.69
2023-03-07T10:33:40.455Z,49.66
2023-03-07T10:34:40.332Z,48.43
2023-03-07T10:35:45.351Z,48.22
2023-03-07T10:36:40.313Z,48.43
2023-03-07T10:37:40.320Z,47.71
2023-03-07T10:38:40.307Z,48.13
2023-03-07T10:39:40.277Z,48.82
2023-03-07T10:40:40.291Z,47.28
2023-03-07T10:41:40.257Z,47.59
2023-03-07T10:42:40.249Z,47.41
2023-03-07T10:43:40.240Z,47.94
2023-03-07T10:44:40.219Z,48.64
2023-03-07T10:45:40.253Z,47.81
2023-03-07T10:46:55.181Z,47.59
2023-03-07T10:47:40.214Z,47.92
2023-03-07T10:48:40.187Z,47.51
2023-03-07T10:49:40.166Z,48.22
2023-03-07T10:50:40.170Z,47.18
2023-03-07T10:51:40.144Z,47.49
2023-03-07T10:52:40.133Z,47.56
2023-03-07T10:53:40.143Z,46.72
2023-03-07T10:54:40.109Z,46.42
2023-03-07T10:55:40.159Z,45.47
2023-03-07T10:56:40.095Z,44.76
2023-03-07T10:57:45.112Z,44.96
2023-03-07T10:58:40.108Z,44.84
2023-03-07T10:59:40.092Z,45.04
2023-03-07T11:00:40.042Z,45.17
2023-03-07T11:01:40.092Z,45.17
2023-03-07T11:02:40.036Z,44.88
2023-03-07T11:03:52.194Z,44.88
2023-03-07T11:04:40.069Z,45.80
2023-03-07T11:05:40.037Z,45.83
2023-03-07T11:06:39.976Z,45.80
2023-03-07T11:07:39.974Z,46.23
2023-03-07T11:08:44.978Z,46.77
2023-03-07T11:09:39.936Z,46.67
2023-03-07T11:10:39.929Z,46.79
2023-03-07T11:11:39.937Z,47.00
2023-03-07T11:12:39.901Z,47.84
2023-03-07T11:13:39.888Z,48.66
2023-03-07T11:14:39.886Z,47.34
2023-03-07T11:15:39.873Z,48.47
2023-03-07T11:16:39.865Z,48.79
2023-03-07T11:17:39.931Z,48.91
2023-03-07T11:18:39.879Z,49.32
2023-03-07T11:19:44.877Z,49.19
2023-03-07T11:20:39.810Z,48.68
2023-03-07T11:21:39.800Z,48.38
2023-03-07T11:22:39.788Z,48.38
2023-03-07T11:23:39.784Z,48.58
2023-03-07T11:24:39.786Z,48.47
2023-03-07T11:25:39.757Z,48.79
2023-03-07T11:26:39.765Z,49.19
2023-03-07T11:27:39.745Z,48.68
2023-03-07T11:28:39.733Z,48.50
2023-03-07T11:29:39.722Z,48.71
2023-03-07T11:30:44.767Z,49.73
2023-03-07T11:31:39.690Z,49.84
2023-03-07T11:32:39.777Z,49.84
2023-03-07T11:33:52.991Z,49.52
2023-03-07T11:34:40.700Z,48.60
2023-03-07T11:35:39.658Z,49.63
2023-03-07T11:36:39.653Z,50.04
2023-03-07T11:37:39.623Z,49.96
2023-03-07T11:38:39.609Z,49.96
2023-03-07T11:39:39.611Z,50.37
2023-03-07T11:40:39.587Z,50.27
2023-03-07T11:41:44.599Z,49.96
2023-03-07T11:42:39.602Z,49.96
2023-03-07T11:43:39.561Z,50.16
2023-03-07T11:44:39.555Z,50.16
2023-03-07T11:45:39.532Z,49.86
2023-03-07T11:46:39.541Z,49.76
2023-03-07T11:47:39.520Z,49.96
2023-03-07T11:48:39.522Z,49.86
2023-03-07T11:49:39.500Z,49.96
2023-03-07T11:50:39.497Z,49.86
2023-03-07T11:51:39.475Z,49.55
2023-03-07T11:52:44.478Z,50.86
2023-03-07T11:53:39.445Z,50.14
2023-03-07T11:54:39.482Z,49.91
2023-03-07T11:55:39.426Z,49.91
2023-03-07T11:56:39.412Z,49.63
2023-03-07T11:57:39.402Z,50.45
2023-03-07T11:58:39.390Z,50.22
2023-03-07T11:59:39.380Z,50.12
2023-03-07T12:00:39.448Z,50.84
2023-03-07T12:01:39.365Z,49.60
2023-03-07T12:02:39.410Z,49.69
2023-03-07T12:03:44.379Z,49.48
2023-03-07T12:04:39.326Z,49.51
2023-03-07T12:05:39.494Z,50.22
2023-03-07T12:06:39.341Z,50.02
2023-03-07T12:07:39.299Z,49.94
2023-03-07T12:08:39.282Z,49.43
2023-03-07T12:09:39.271Z,50.04
2023-03-07T12:10:39.270Z,49.94
2023-03-07T12:11:39.252Z,49.73
2023-03-07T12:12:39.292Z,50.14
2023-03-07T12:13:39.225Z,50.24
2023-03-07T12:14:44.240Z,49.22
2023-03-07T12:15:39.223Z,50.06
2023-03-07T12:16:39.321Z,49.96
2023-03-07T12:17:39.215Z,49.76
2023-03-07T12:18:39.193Z,49.55
2023-03-07T12:19:39.163Z,50.16
2023-03-07T12:20:39.152Z,50.58
2023-03-07T12:21:39.167Z,51.30
2023-03-07T12:22:39.154Z,51.30
2023-03-07T12:23:39.118Z,50.68
2023-03-07T12:24:39.131Z,50.99
2023-03-07T12:25:44.124Z,50.14
2023-03-07T12:26:39.092Z,50.56
2023-03-07T12:27:39.072Z,50.14
2023-03-07T12:28:39.070Z,50.56
2023-03-07T12:29:39.056Z,50.14
2023-03-07T12:30:39.068Z,50.66
2023-03-07T12:31:39.212Z,50.45
2023-03-07T12:32:39.195Z,50.66
2023-03-07T12:33:39.045Z,49.52
2023-03-07T12:34:38.994Z,49.71
2023-03-07T12:35:39.025Z,50.02
2023-03-07T12:36:44.045Z,49.60
2023-03-07T12:37:38.965Z,49.71
2023-03-07T12:38:38.982Z,50.14
2023-03-07T12:39:38.941Z,49.84
2023-03-07T12:40:38.928Z,49.94
2023-03-07T12:41:38.926Z,49.43
2023-03-07T12:42:38.921Z,50.56
2023-03-07T12:43:38.897Z,50.14
2023-03-07T12:44:38.919Z,50.37
2023-03-07T12:45:38.927Z,49.63
2023-03-07T12:46:38.949Z,50.86
2023-03-07T12:47:43.874Z,50.14
2023-03-07T12:48:38.919Z,50.16
2023-03-07T12:49:49.002Z,50.35
2023-03-07T12:50:38.826Z,50.16
2023-03-07T12:51:39.195Z,50.68
2023-03-07T12:52:38.794Z,50.16